Time;durP1;ratioP1;P1;durP2;ratioP2;P2;SDS_P1;SDS_P2;PMS_P1;PMS_P2;Temp;Humidity;BMP_temperature;BMP_pressure;BME280_temperature;BME280_humidity;BME280_pressure;Samples;Min_cycle;Max_cycle;Signal;HPM_P1;HPM_P2
2023/03/09 00:00:32;;;;;;;6.27;4.90;;;5.60;99.90;;;;;;5051923;28;20212;-81
2023/03/09 00:02:58;;;;;;;8.20;4.87;;;5.70;99.90;;;;;;5052431;28;20196;-81
2023/03/09 00:05:23;;;;;;;6.93;4.70;;;5.80;99.90;;;;;;5034388;28;20545;-81
2023/03/09 00:07:49;;;;;;;6.77;5.03;;;5.80;99.90;;;;;;5052032;28;20168;-81
2023/03/09 00:10:15;;;;;;;7.20;5.10;;;5.70;99.90;;;;;;5033790;28;20676;-81
2023/03/09 00:12:41;;;;;;;6.90;4.63;;;5.70;99.90;;;;;;5051963;28;20181;-81
2023/03/09 00:15:09;;;;;;;6.20;4.80;;;5.80;99.90;;;;;;5034091;28;20174;-82
2023/03/09 00:17:35;;;;;;;6.70;4.80;;;5.70;99.90;;;;;;5052193;28;20562;-81
2023/03/09 00:20:14;;;;;;;7.30;4.73;;;5.70;99.90;;;;;;5051487;28;20748;-81
2023/03/09 00:22:40;;;;;;;7.20;4.73;;;5.70;99.90;;;;;;5031926;28;20250;-81
2023/03/09 00:25:06;;;;;;;5.63;4.30;;;5.60;99.90;;;;;;5014295;28;20175;-82
2023/03/09 00:27:32;;;;;;;5.33;3.87;;;5.60;99.90;;;;;;5014501;28;20185;-81
2023/03/09 00:29:58;;;;;;;5.83;4.27;;;5.70;99.90;;;;;;5031918;28;20231;-81
2023/03/09 00:32:23;;;;;;;5.60;4.07;;;5.70;99.90;;;;;;5014181;28;20719;-82
2023/03/09 00:34:49;;;;;;;5.63;4.10;;;5.80;99.90;;;;;;5031956;28;20178;-81
2023/03/09 00:37:14;;;;;;;6.23;4.87;;;5.80;99.90;;;;;;5031771;28;20183;-81
2023/03/09 00:39:40;;;;;;;6.27;4.47;;;5.80;99.90;;;;;;5031493;28;20302;-81
2023/03/09 00:42:05;;;;;;;5.97;3.90;;;5.90;99.90;;;;;;5014092;28;20182;-81
2023/03/09 00:44:31;;;;;;;6.07;4.60;;;6.00;99.90;;;;;;5025163;28;20561;-81
2023/03/09 00:46:56;;;;;;;6.17;4.13;;;6.00;99.90;;;;;;5034017;28;20171;-81
2023/03/09 00:49:22;;;;;;;6.27;4.70;;;6.00;99.90;;;;;;5033981;28;20595;-81
2023/03/09 00:51:48;;;;;;;5.10;4.20;;;6.00;99.90;;;;;;5034691;28;20691;-81
2023/03/09 00:54:14;;;;;;;6.83;5.00;;;6.00;99.90;;;;;;5037407;28;20186;-81
2023/03/09 00:56:40;;;;;;;5.93;4.73;;;6.10;99.90;;;;;;5055349;28;20184;-81
2023/03/09 00:59:06;;;;;;;7.07;5.43;;;6.10;99.90;;;;;;5055327;28;20207;-81
2023/03/09 01:01:32;;;;;;;6.20;5.13;;;6.20;99.90;;;;;;5054895;28;20287;-82
2023/03/09 01:03:57;;;;;;;6.67;4.87;;;6.30;99.90;;;;;;5037356;28;20170;-81
2023/03/09 01:06:24;;;;;;;6.40;5.17;;;6.30;99.90;;;;;;5036960;28;20181;-81
2023/03/09 01:08:50;;;;;;;6.37;4.97;;;6.30;99.90;;;;;;5036857;28;20178;-81
2023/03/09 01:11:16;;;;;;;6.57;5.40;;;6.20;99.90;;;;;;5054845;28;20281;-81
2023/03/09 01:13:43;;;;;;;6.93;5.70;;;6.20;99.90;;;;;;5054758;28;20190;-81
2023/03/09 01:16:09;;;;;;;7.87;5.90;;;6.20;99.90;;;;;;5036995;28;20229;-81
2023/03/09 01:18:35;;;;;;;6.93;5.80;;;6.30;99.90;;;;;;5036877;28;20203;-82
2023/03/09 01:21:01;;;;;;;7.77;5.80;;;6.40;99.90;;;;;;5036539;28;20203;-81
2023/03/09 01:23:27;;;;;;;7.87;6.17;;;6.40;99.90;;;;;;5055355;28;20177;-82
2023/03/09 01:25:52;;;;;;;7.93;6.57;;;6.50;99.90;;;;;;5055281;28;20257;-82
2023/03/09 01:28:18;;;;;;;9.47;7.43;;;6.50;99.90;;;;;;5055092;28;20205;-82
2023/03/09 01:30:44;;;;;;;8.97;7.00;;;6.50;99.90;;;;;;5036625;28;20199;-81
2023/03/09 01:33:10;;;;;;;10.20;8.03;;;6.50;99.90;;;;;;5036510;28;20641;-81
2023/03/09 01:35:38;;;;;;;10.80;7.40;;;6.50;99.90;;;;;;5054605;28;20188;-77
2023/03/09 01:38:04;;;;;;;8.97;7.03;;;6.60;99.90;;;;;;5054549;28;20549;-81
2023/03/09 01:40:29;;;;;;;8.20;6.97;;;6.60;99.90;;;;;;5036578;28;20215;-82
2023/03/09 01:42:57;;;;;;;8.90;7.17;;;6.60;99.90;;;;;;5054355;28;20203;-81
2023/03/09 01:45:22;;;;;;;9.37;7.10;;;6.60;99.90;;;;;;5036221;28;20185;-82
2023/03/09 01:47:49;;;;;;;9.47;6.97;;;6.60;99.90;;;;;;5036549;28;20190;-82
2023/03/09 01:50:17;;;;;;;8.00;6.50;;;6.50;99.90;;;;;;5053811;28;20195;-81
2023/03/09 01:52:45;;;;;;;7.87;6.37;;;6.50;99.90;;;;;;5036400;28;20179;-81
2023/03/09 01:55:14;;;;;;;8.40;6.77;;;6.40;99.90;;;;;;5036424;28;20187;-81
2023/03/09 01:57:46;;;;;;;7.93;6.47;;;6.30;99.90;;;;;;5036334;28;20186;-82
2023/03/09 02:00:15;;;;;;;9.67;7.07;;;6.20;99.90;;;;;;5035723;28;20212;-81
2023/03/09 02:02:44;;;;;;;8.47;6.93;;;6.20;99.90;;;;;;5035741;28;20209;-82
2023/03/09 02:05:17;;;;;;;9.20;7.20;;;6.10;99.90;;;;;;5053455;28;20647;-82
2023/03/09 02:07:46;;;;;;;9.57;7.43;;;6.10;99.90;;;;;;5053623;28;20182;-81
2023/03/09 02:10:23;;;;;;;9.20;7.50;;;6.10;99.90;;;;;;5053524;28;20210;-82
2023/03/09 02:12:54;;;;;;;9.63;7.07;;;6.10;99.90;;;;;;5035775;28;20176;-81
2023/03/09 02:15:20;;;;;;;8.97;7.63;;;6.10;99.90;;;;;;5053641;28;20190;-81
2023/03/09 02:17:47;;;;;;;9.70;7.60;;;6.10;99.90;;;;;;5053626;28;20186;-82
2023/03/09 02:20:31;;;;;;;10.20;7.67;;;6.10;99.90;;;;;;5035339;28;20203;-82
2023/03/09 02:22:57;;;;;;;8.70;7.03;;;6.10;99.90;;;;;;5035759;28;20175;-82
2023/03/09 02:25:37;;;;;;;8.20;6.73;;;6.10;99.90;;;;;;5053352;28;20168;-82
2023/03/09 02:28:05;;;;;;;9.17;6.90;;;6.10;99.90;;;;;;5035802;28;20173;-82
2023/03/09 02:30:35;;;;;;;8.87;7.20;;;6.10;99.90;;;;;;5035623;28;20200;-83
2023/03/09 02:33:10;;;;;;;10.10;7.20;;;6.10;99.90;;;;;;5035824;28;20183;-82
2023/03/09 02:35:36;;;;;;;8.97;7.30;;;6.10;99.90;;;;;;5035460;28;20172;-81
2023/03/09 02:38:01;;;;;;;10.10;7.43;;;6.20;99.90;;;;;;5035247;28;20208;-82
2023/03/09 02:40:34;;;;;;;8.77;7.13;;;6.20;99.90;;;;;;5034986;28;20212;-82
2023/03/09 02:43:02;;;;;;;9.33;7.27;;;6.20;99.90;;;;;;5035437;28;20168;-82
2023/03/09 02:45:30;;;;;;;8.53;6.93;;;6.30;99.90;;;;;;5053443;28;20217;-82
2023/03/09 02:47:57;;;;;;;8.77;6.90;;;6.30;99.90;;;;;;5035070;28;20310;-82
2023/03/09 02:50:23;;;;;;;9.13;7.23;;;6.30;99.90;;;;;;5034820;28;20207;-82
2023/03/09 02:52:49;;;;;;;9.87;7.30;;;6.30;99.90;;;;;;5034956;28;20177;-82
2023/03/09 02:55:14;;;;;;;9.43;7.10;;;6.40;99.90;;;;;;5035025;28;20184;-82
2023/03/09 02:57:41;;;;;;;7.97;6.37;;;6.40;99.90;;;;;;5035140;28;20602;-81
2023/03/09 03:00:08;;;;;;;9.37;5.90;;;6.40;99.90;;;;;;5034159;28;20208;-82
2023/03/09 03:02:35;;;;;;;7.30;5.33;;;6.30;99.90;;;;;;5034843;28;20191;-82
2023/03/09 03:05:01;;;;;;;6.17;4.63;;;6.40;99.90;;;;;;5052663;28;20171;-82
2023/03/09 03:07:26;;;;;;;5.33;4.40;;;6.40;99.90;;;;;;5053081;28;20167;-82
2023/03/09 03:09:52;;;;;;;4.70;3.80;;;6.40;99.90;;;;;;5034512;28;20180;-82
2023/03/09 03:12:18;;;;;;;5.60;3.70;;;6.40;99.90;;;;;;5052876;28;20179;-82
2023/03/09 03:14:44;;;;;;;3.90;3.43;;;6.40;99.90;;;;;;5052613;28;20202;-82
2023/03/09 03:17:10;;;;;;;4.27;3.60;;;6.40;99.90;;;;;;5052076;28;20174;-82
2023/03/09 03:19:36;;;;;;;5.27;3.53;;;6.40;99.90;;;;;;5052161;28;20199;-78
2023/03/09 03:22:03;;;;;;;3.47;2.97;;;6.50;99.90;;;;;;5052539;28;20165;-82
2023/03/09 03:24:28;;;;;;;4.10;2.90;;;6.40;99.90;;;;;;5034625;28;20173;-83
2023/03/09 03:26:54;;;;;;;3.37;2.60;;;6.40;99.90;;;;;;5034594;28;20266;-82
2023/03/09 03:29:19;;;;;;;3.00;2.70;;;6.40;99.90;;;;;;5034551;28;20174;-82
2023/03/09 03:31:45;;;;;;;2.63;2.20;;;6.40;99.90;;;;;;5034340;28;20197;-82
2023/03/09 03:34:10;;;;;;;3.00;2.50;;;6.40;99.90;;;;;;5052271;28;20185;-82
2023/03/09 03:36:36;;;;;;;2.57;2.30;;;6.40;99.90;;;;;;5034443;28;20298;-81
2023/03/09 03:39:03;;;;;;;2.97;2.40;;;6.40;99.90;;;;;;5034578;28;20212;-82
2023/03/09 03:41:28;;;;;;;2.47;2.23;;;6.30;99.90;;;;;;5052213;28;20204;-82
2023/03/09 03:43:54;;;;;;;3.10;2.30;;;6.30;99.90;;;;;;5034499;28;20185;-82
2023/03/09 03:46:20;;;;;;;3.50;2.20;;;6.40;99.90;;;;;;5034465;28;20177;-82
2023/03/09 03:48:45;;;;;;;2.63;2.30;;;6.40;99.90;;;;;;5052067;28;20179;-83
2023/03/09 03:51:11;;;;;;;2.50;2.20;;;6.40;99.90;;;;;;5033815;28;20255;-80
2023/03/09 03:53:36;;;;;;;2.17;1.97;;;6.40;99.90;;;;;;5052329;28;20224;-82
2023/03/09 03:56:03;;;;;;;2.70;2.00;;;6.40;99.90;;;;;;5052158;28;20187;-82
2023/03/09 03:58:29;;;;;;;3.20;2.00;;;6.40;99.90;;;;;;5052342;28;20173;-82
2023/03/09 04:00:54;;;;;;;2.47;1.97;;;6.40;99.90;;;;;;5051763;28;20200;-82
2023/03/09 04:03:20;;;;;;;2.13;1.90;;;6.40;99.90;;;;;;5034159;28;20631;-83
2023/03/09 04:05:46;;;;;;;2.23;2.00;;;6.50;99.90;;;;;;5052433;28;20245;-82
2023/03/09 04:08:11;;;;;;;2.43;2.23;;;6.50;99.90;;;;;;5034111;28;20175;-82
2023/03/09 04:10:38;;;;;;;4.20;2.20;;;6.40;99.90;;;;;;5033873;28;20308;-82
2023/03/09 04:13:04;;;;;;;2.20;2.00;;;6.40;99.90;;;;;;5052013;28;20176;-82
2023/03/09 04:15:32;;;;;;;2.60;2.23;;;6.40;99.90;;;;;;5033884;28;20173;-82
2023/03/09 04:17:57;;;;;;;3.37;2.17;;;6.40;99.90;;;;;;5051900;28;20187;-82
2023/03/09 04:20:23;;;;;;;2.20;2.00;;;6.50;99.90;;;;;;5051441;28;20212;-82
2023/03/09 04:22:49;;;;;;;3.10;2.77;;;6.50;99.90;;;;;;5034275;28;20173;-82
2023/03/09 04:25:15;;;;;;;3.10;2.53;;;6.40;99.90;;;;;;5034128;28;20177;-83
2023/03/09 04:27:41;;;;;;;3.27;2.57;;;6.50;99.90;;;;;;5054293;28;20186;-82
2023/03/09 04:30:08;;;;;;;3.63;3.13;;;6.50;99.90;;;;;;5037434;28;20286;-82
2023/03/09 04:32:34;;;;;;;5.67;4.20;;;6.50;99.90;;;;;;5037635;28;20181;-82
2023/03/09 04:34:59;;;;;;;8.33;5.17;;;6.50;99.90;;;;;;5037732;28;20542;-82
2023/03/09 04:37:25;;;;;;;8.00;5.20;;;6.40;99.90;;;;;;5055853;28;20179;-80
2023/03/09 04:39:50;;;;;;;11.87;7.00;;;6.40;99.90;;;;;;5037365;28;20201;-82
2023/03/09 04:42:16;;;;;;;15.60;8.00;;;6.40;99.90;;;;;;5037783;28;20644;-82
2023/03/09 04:44:42;;;;;;;9.17;5.77;;;6.50;99.90;;;;;;5055582;28;20538;-82
2023/03/09 04:47:12;;;;;;;10.20;6.20;;;6.40;99.90;;;;;;5055488;28;20206;-82
2023/03/09 04:49:39;;;;;;;5.20;3.80;;;6.50;99.90;;;;;;5055235;28;20168;-82
2023/03/09 04:52:05;;;;;;;6.23;4.40;;;6.40;99.90;;;;;;5037534;28;20186;-82
2023/03/09 04:54:30;;;;;;;4.07;3.60;;;6.40;99.90;;;;;;5055350;28;20180;-82
2023/03/09 04:56:56;;;;;;;4.23;3.50;;;6.40;99.90;;;;;;5037592;28;20183;-82
2023/03/09 04:59:21;;;;;;;4.77;3.77;;;6.40;99.90;;;;;;5037233;28;20392;-82
2023/03/09 05:01:47;;;;;;;5.20;3.93;;;6.40;99.90;;;;;;5054821;28;20246;-82
2023/03/09 05:04:12;;;;;;;4.87;3.80;;;6.40;99.90;;;;;;5037453;28;20196;-83
2023/03/09 05:06:38;;;;;;;5.03;3.83;;;6.30;99.90;;;;;;5037461;28;20226;-82
2023/03/09 05:09:05;;;;;;;5.20;4.30;;;6.30;99.90;;;;;;5037121;28;20184;-82
2023/03/09 05:11:31;;;;;;;4.83;3.87;;;6.30;99.90;;;;;;5058989;22;20222;-84
2023/03/09 05:13:57;;;;;;;4.17;3.67;;;6.40;99.90;;;;;;5033961;28;20169;-84
2023/03/09 05:16:22;;;;;;;4.37;3.53;;;6.30;99.90;;;;;;5035343;28;20180;-84
2023/03/09 05:18:49;;;;;;;4.30;3.70;;;6.40;99.90;;;;;;5034959;28;20727;-84
2023/03/09 05:21:15;;;;;;;4.47;3.77;;;6.40;99.90;;;;;;5026442;28;20292;-83
2023/03/09 05:23:41;;;;;;;4.43;3.33;;;6.40;99.90;;;;;;5023022;28;20176;-83
2023/03/09 05:26:07;;;;;;;4.03;3.60;;;6.50;99.90;;;;;;5021236;28;20179;-84
2023/03/09 05:28:34;;;;;;;4.90;3.97;;;6.50;99.90;;;;;;5033876;28;20172;-82
2023/03/09 05:31:01;;;;;;;4.90;3.77;;;6.50;99.90;;;;;;5018751;28;20335;-84
2023/03/09 05:33:27;;;;;;;4.03;3.47;;;6.40;99.90;;;;;;5014168;28;20172;-84
2023/03/09 05:35:53;;;;;;;4.50;3.40;;;6.40;99.90;;;;;;5014500;28;20169;-85
2023/03/09 05:38:19;;;;;;;3.67;3.13;;;6.50;99.90;;;;;;5012530;28;20170;-84
2023/03/09 05:40:44;;;;;;;3.50;2.87;;;6.50;99.90;;;;;;5015733;28;20204;-83
2023/03/09 05:43:10;;;;;;;3.83;2.80;;;6.50;99.90;;;;;;5014823;28;20170;-84
2023/03/09 05:45:36;;;;;;;3.00;2.70;;;6.50;99.90;;;;;;5014998;28;20539;-83
2023/03/09 05:48:02;;;;;;;2.53;2.23;;;6.40;99.90;;;;;;5026759;28;20740;-82
2023/03/09 05:50:27;;;;;;;3.40;2.80;;;6.50;99.90;;;;;;5017649;28;20202;-82
2023/03/09 05:52:53;;;;;;;3.20;2.30;;;6.60;99.90;;;;;;5033193;28;20208;-82
2023/03/09 05:55:18;;;;;;;3.33;2.53;;;6.70;99.90;;;;;;5023678;28;20175;-82
2023/03/09 05:57:44;;;;;;;2.93;2.40;;;6.80;99.90;;;;;;5014446;28;20605;-82
2023/03/09 06:00:10;;;;;;;3.00;2.70;;;6.90;99.90;;;;;;5012974;28;20203;-83
2023/03/09 06:02:36;;;;;;;3.53;3.17;;;6.80;99.90;;;;;;5024901;28;20292;-83
2023/03/09 06:05:02;;;;;;;3.47;3.10;;;6.80;99.90;;;;;;5034190;28;20181;-83
2023/03/09 06:07:30;;;;;;;4.00;3.10;;;6.70;99.90;;;;;;5032454;28;20265;-83
2023/03/09 06:09:56;;;;;;;3.87;3.10;;;6.60;99.90;;;;;;5033599;28;20188;-83
2023/03/09 06:12:22;;;;;;;4.37;3.07;;;6.60;99.90;;;;;;5022347;28;20207;-83
2023/03/09 06:14:48;;;;;;;3.50;3.17;;;6.60;99.90;;;;;;5012921;28;20269;-84
2023/03/09 06:17:15;;;;;;;3.83;3.30;;;6.60;99.90;;;;;;5019715;28;20190;-83
2023/03/09 06:19:41;;;;;;;4.60;3.50;;;6.60;99.90;;;;;;5028952;28;20208;-83
2023/03/09 06:22:06;;;;;;;4.23;3.67;;;6.60;99.90;;;;;;5012414;28;20198;-83
2023/03/09 06:24:32;;;;;;;4.37;3.40;;;6.60;99.90;;;;;;5012556;28;20209;-83
2023/03/09 06:26:58;;;;;;;4.17;3.37;;;6.60;99.90;;;;;;5013916;28;20210;-84
2023/03/09 06:29:25;;;;;;;4.90;3.87;;;6.50;99.90;;;;;;5012483;28;20188;-84
2023/03/09 06:31:51;;;;;;;4.33;3.70;;;6.50;99.90;;;;;;5014243;28;20204;-83
2023/03/09 06:34:16;;;;;;;4.97;3.50;;;6.50;99.90;;;;;;5013915;28;20189;-81
2023/03/09 06:36:42;;;;;;;3.90;3.50;;;6.50;99.90;;;;;;5014396;28;20194;-85
2023/03/09 06:39:09;;;;;;;4.40;3.60;;;6.50;99.90;;;;;;5012225;28;20205;-85
2023/03/09 06:41:35;;;;;;;4.17;3.47;;;6.50;99.90;;;;;;5012713;28;20194;-84
2023/03/09 06:44:01;;;;;;;4.23;3.53;;;6.50;99.90;;;;;;5029759;28;20185;-84
2023/03/09 06:46:27;;;;;;;3.90;3.50;;;6.50;99.90;;;;;;5029528;28;20274;-82
2023/03/09 06:48:53;;;;;;;5.00;3.70;;;6.50;99.90;;;;;;5016893;28;20182;-82
2023/03/09 06:51:18;;;;;;;4.13;3.30;;;6.50;99.90;;;;;;5014672;28;20201;-83
2023/03/09 06:53:44;;;;;;;4.70;4.17;;;6.60;99.90;;;;;;5017684;28;20300;-81
2023/03/09 06:56:10;;;;;;;3.93;3.40;;;6.70;99.90;;;;;;5017089;28;20224;-84
2023/03/09 06:58:36;;;;;;;4.30;3.40;;;6.80;99.90;;;;;;5011995;28;20231;-83
2023/03/09 07:01:06;;;;;;;3.97;3.57;;;6.80;99.90;;;;;;5013041;28;20206;-80
2023/03/09 07:03:32;;;;;;;5.53;3.87;;;6.80;99.90;;;;;;5013452;28;20204;-80
2023/03/09 07:05:57;;;;;;;4.10;3.70;;;6.80;99.90;;;;;;5012812;28;20178;-83
2023/03/09 07:08:23;;;;;;;5.03;3.80;;;6.80;99.90;;;;;;5013532;28;20176;-84
2023/03/09 07:10:49;;;;;;;3.70;3.30;;;6.70;99.90;;;;;;5013106;28;20228;-83
2023/03/09 07:13:14;;;;;;;4.17;3.33;;;6.70;99.90;;;;;;5011895;28;20185;-83
2023/03/09 07:15:40;;;;;;;4.90;3.60;;;6.70;99.90;;;;;;5012256;28;20183;-83
2023/03/09 07:18:06;;;;;;;4.47;3.20;;;6.70;99.90;;;;;;5012323;28;20189;-84
2023/03/09 07:20:32;;;;;;;5.10;3.90;;;6.70;99.90;;;;;;5017204;28;20311;-84
2023/03/09 07:22:57;;;;;;;5.00;4.10;;;6.70;99.90;;;;;;5026323;28;20254;-83
2023/03/09 07:25:23;;;;;;;5.07;3.97;;;6.70;99.90;;;;;;5020125;28;20174;-83
2023/03/09 07:27:49;;;;;;;5.87;4.30;;;6.70;99.90;;;;;;5012300;28;20178;-83
2023/03/09 07:30:15;;;;;;;5.83;4.40;;;6.70;99.90;;;;;;5013162;28;20182;-83
2023/03/09 07:32:41;;;;;;;6.33;4.50;;;6.70;99.90;;;;;;5011631;28;20189;-83
2023/03/09 07:35:07;;;;;;;6.57;5.30;;;6.70;99.90;;;;;;5011759;28;20183;-83
2023/03/09 07:37:32;;;;;;;6.73;5.13;;;6.70;99.90;;;;;;5012813;28;20177;-85
2023/03/09 07:39:58;;;;;;;9.73;7.17;;;6.70;99.90;;;;;;5012599;28;20212;-83
2023/03/09 07:42:24;;;;;;;8.47;6.80;;;6.70;99.90;;;;;;5020748;28;20198;-83
2023/03/09 07:44:49;;;;;;;8.40;6.40;;;6.70;99.90;;;;;;5031435;28;20190;-83
2023/03/09 07:47:15;;;;;;;9.37;6.97;;;6.70;99.90;;;;;;5031970;28;20234;-84
2023/03/09 07:49:40;;;;;;;12.33;8.60;;;6.70;99.90;;;;;;5031499;28;20181;-83
2023/03/09 07:52:06;;;;;;;10.80;6.90;;;6.70;99.90;;;;;;5031210;28;20201;-83
2023/03/09 07:54:33;;;;;;;7.43;6.03;;;6.70;99.90;;;;;;5032132;28;20265;-83
2023/03/09 07:56:58;;;;;;;7.87;5.53;;;6.70;99.90;;;;;;5031020;28;20186;-83
2023/03/09 07:59:24;;;;;;;6.70;5.23;;;6.80;99.90;;;;;;5031892;28;20626;-82
2023/03/09 08:01:50;;;;;;;6.23;5.00;;;6.80;99.90;;;;;;5032362;28;20229;-83
2023/03/09 08:04:16;;;;;;;6.77;5.10;;;6.90;99.90;;;;;;5036808;28;20224;-83
2023/03/09 08:06:42;;;;;;;7.40;5.33;;;7.00;99.90;;;;;;5036525;28;20230;-83
2023/03/09 08:09:12;;;;;;;6.27;5.03;;;7.10;99.90;;;;;;5036529;28;20178;-83
2023/03/09 08:11:38;;;;;;;5.93;4.37;;;7.10;99.90;;;;;;5034845;28;20224;-82
2023/03/09 08:14:03;;;;;;;7.90;4.50;;;7.10;99.90;;;;;;5035161;28;20185;-83
2023/03/09 08:16:29;;;;;;;7.20;4.87;;;7.10;99.90;;;;;;5035000;28;20252;-83
2023/03/09 08:18:55;;;;;;;13.53;7.73;;;7.10;99.90;;;;;;5035284;28;20197;-83
2023/03/09 08:21:20;;;;;;;5.87;3.93;;;7.10;99.90;;;;;;5034723;28;20237;-82
2023/03/09 08:23:47;;;;;;;5.37;3.60;;;7.10;99.90;;;;;;5036396;28;20170;-83
2023/03/09 08:26:14;;;;;;;5.43;3.40;;;7.20;99.90;;;;;;5035999;28;20170;-83
2023/03/09 08:28:41;;;;;;;4.70;2.53;;;7.20;99.90;;;;;;5035028;28;20177;-83
2023/03/09 08:31:12;;;;;;;3.93;2.50;;;7.20;99.90;;;;;;5036097;28;20672;-83
2023/03/09 08:33:38;;;;;;;2.87;2.40;;;7.20;99.90;;;;;;5035191;28;20170;-83
2023/03/09 08:36:16;;;;;;;4.43;2.50;;;7.20;99.90;;;;;;5037294;28;20228;-83
2023/03/09 08:38:42;;;;;;;3.77;2.30;;;7.20;99.90;;;;;;5036400;28;20203;-83
2023/03/09 08:41:08;;;;;;;3.77;2.20;;;7.20;99.90;;;;;;5034709;28;20577;-83
2023/03/09 08:43:34;;;;;;;3.47;2.40;;;7.20;99.90;;;;;;5036452;28;20232;-83
2023/03/09 08:45:59;;;;;;;4.43;2.50;;;7.20;99.90;;;;;;5037703;28;20184;-83
2023/03/09 08:48:25;;;;;;;3.77;2.47;;;7.20;99.90;;;;;;5036036;28;20196;-83
2023/03/09 08:50:50;;;;;;;3.97;1.70;;;7.20;99.90;;;;;;5034380;28;20255;-83
2023/03/09 08:53:18;;;;;;;3.47;2.00;;;7.30;99.90;;;;;;5035660;28;20175;-83
2023/03/09 08:55:43;;;;;;;2.70;1.80;;;7.30;99.90;;;;;;5035987;28;20182;-83
2023/03/09 08:58:09;;;;;;;3.30;2.10;;;7.30;99.90;;;;;;5035602;28;20169;-83
2023/03/09 09:00:35;;;;;;;1.77;1.50;;;7.40;99.90;;;;;;5034068;28;20201;-83
2023/03/09 09:03:00;;;;;;;3.33;2.10;;;7.40;99.90;;;;;;5034510;28;20185;-83
2023/03/09 09:05:26;;;;;;;3.47;1.80;;;7.40;99.90;;;;;;5034911;28;20180;-83
2023/03/09 09:07:52;;;;;;;6.10;2.40;;;7.40;99.90;;;;;;5034208;28;20174;-83
2023/03/09 09:10:17;;;;;;;4.60;2.10;;;7.50;99.90;;;;;;5033698;28;20217;-83
2023/03/09 09:12:43;;;;;;;3.70;1.70;;;7.50;99.90;;;;;;5033472;28;20210;-83
2023/03/09 09:15:10;;;;;;;3.90;2.00;;;7.60;99.90;;;;;;5033668;28;20182;-83
2023/03/09 09:17:36;;;;;;;7.00;3.00;;;7.60;99.90;;;;;;5034235;28;20190;-83
2023/03/09 09:20:04;;;;;;;4.03;2.20;;;7.70;99.90;;;;;;5034318;28;20289;-82
2023/03/09 09:22:29;;;;;;;4.47;2.50;;;7.70;99.90;;;;;;5033743;28;20209;-85
2023/03/09 09:24:55;;;;;;;5.00;2.70;;;7.70;99.90;;;;;;5033927;28;20181;-82
2023/03/09 09:27:21;;;;;;;4.47;2.37;;;7.70;99.90;;;;;;5035497;28;20186;-82
2023/03/09 09:29:46;;;;;;;7.97;3.53;;;7.80;99.90;;;;;;5034842;28;20209;-83
2023/03/09 09:32:12;;;;;;;4.70;2.37;;;7.80;99.90;;;;;;5033705;28;20198;-83
2023/03/09 09:34:38;;;;;;;5.20;2.60;;;7.90;99.90;;;;;;5035606;28;20237;-83
2023/03/09 09:37:05;;;;;;;3.90;2.70;;;7.90;99.90;;;;;;5033374;28;20701;-83
2023/03/09 09:39:32;;;;;;;3.53;2.57;;;7.90;99.90;;;;;;5033673;28;20233;-83
2023/03/09 09:42:30;;;;;;;5.93;3.63;;;7.80;99.90;;;;;;5033563;28;20190;-83
2023/03/09 09:44:58;;;;;;;3.53;2.33;;;7.80;99.90;;;;;;5031508;28;20210;-84
2023/03/09 09:47:27;;;;;;;2.93;2.40;;;7.90;99.90;;;;;;5034901;28;20177;-83
2023/03/09 09:49:56;;;;;;;3.90;2.37;;;8.00;99.90;;;;;;5033442;28;20200;-83
2023/03/09 09:52:42;;;;;;;3.63;2.70;;;8.00;99.90;;;;;;5034399;28;20202;-83
2023/03/09 09:55:37;;;;;;;2.83;2.40;;;8.00;99.90;;;;;;5033191;28;20209;-83
2023/03/09 09:58:24;;;;;;;2.10;1.77;;;8.10;99.90;;;;;;5033276;28;20183;-83
2023/03/09 10:00:54;;;;;;;2.20;1.90;;;8.10;99.90;;;;;;5034672;28;20210;-83
2023/03/09 10:03:32;;;;;;;3.53;2.13;;;8.10;99.90;;;;;;5034528;28;20179;-83
2023/03/09 10:06:18;;;;;;;3.97;2.20;;;8.20;99.90;;;;;;5034524;28;20260;-83
2023/03/09 10:08:50;;;;;;;3.73;2.27;;;8.20;99.90;;;;;;5034668;28;20173;-83
2023/03/09 10:11:35;;;;;;;2.63;2.30;;;8.20;99.90;;;;;;5032644;28;20217;-83
2023/03/09 10:14:22;;;;;;;4.03;3.60;;;8.20;99.90;;;;;;5034209;28;20159;-83
2023/03/09 10:16:59;;;;;;;2.87;2.60;;;8.20;99.90;;;;;;5032971;28;20178;-83
2023/03/09 10:19:40;;;;;;;2.60;2.17;;;8.30;99.90;;;;;;5032858;28;20210;-83
2023/03/09 10:22:12;;;;;;;2.63;1.97;;;8.20;99.90;;;;;;5034695;28;20285;-84
2023/03/09 10:24:43;;;;;;;2.50;2.03;;;8.30;99.90;;;;;;5032788;28;20174;-84
2023/03/09 10:27:41;;;;;;;3.90;2.10;;;8.30;99.90;;;;;;5033771;28;20252;-83
2023/03/09 10:30:10;;;;;;;2.53;1.93;;;8.30;99.90;;;;;;5032475;28;20182;-83
2023/03/09 10:32:53;;;;;;;3.83;1.73;;;8.30;99.90;;;;;;5032029;28;20209;-84
2023/03/09 10:35:45;;;;;;;2.77;1.80;;;8.30;99.90;;;;;;5015846;28;20632;-83
2023/03/09 10:38:16;;;;;;;3.70;1.90;;;8.40;99.90;;;;;;5012868;28;20238;-83
2023/03/09 10:41:02;;;;;;;2.73;1.60;;;8.40;99.90;;;;;;5032058;28;20203;-83
2023/03/09 10:43:32;;;;;;;3.20;1.63;;;8.40;99.90;;;;;;5014177;28;20201;-83
2023/03/09 10:46:20;;;;;;;2.60;1.70;;;8.40;99.90;;;;;;5012509;28;20186;-82
2023/03/09 10:48:48;;;;;;;3.00;2.30;;;8.40;99.90;;;;;;5021776;28;20179;-83
2023/03/09 10:51:32;;;;;;;3.07;2.20;;;8.40;99.90;;;;;;5021327;28;20224;-83
2023/03/09 10:54:33;;;;;;;2.83;2.27;;;8.40;99.90;;;;;;5032942;28;20174;-80
2023/03/09 10:56:59;;;;;;;4.00;2.80;;;8.40;99.90;;;;;;5032198;28;20624;-85
2023/03/09 10:59:27;;;;;;;5.37;3.50;;;8.40;99.90;;;;;;5033110;28;20199;-83
2023/03/09 11:01:59;;;;;;;2.80;1.97;;;8.40;99.90;;;;;;5031777;28;20201;-80
2023/03/09 11:04:28;;;;;;;3.77;3.20;;;8.50;99.90;;;;;;5031976;28;20223;-84
2023/03/09 11:07:02;;;;;;;2.03;1.50;;;8.60;99.90;;;;;;5033243;28;20181;-87
2023/03/09 11:09:45;;;;;;;2.23;1.50;;;8.70;99.90;;;;;;5033985;28;20586;-83
2023/03/09 11:12:32;;;;;;;2.97;1.80;;;8.70;99.90;;;;;;5018984;23;1086891;-80
2023/03/09 11:15:01;;;;;;;2.20;1.80;;;8.60;99.90;;;;;;5041445;28;20179;-79
2023/03/09 11:17:44;;;;;;;2.37;1.90;;;8.60;99.90;;;;;;5054330;28;20206;-81
2023/03/09 11:20:25;;;;;;;2.37;1.90;;;8.60;99.90;;;;;;5043598;28;20232;-81
2023/03/09 11:22:57;;;;;;;1.83;1.50;;;8.60;99.90;;;;;;5056989;28;20196;-80
2023/03/09 11:25:48;;;;;;;3.90;2.37;;;8.60;99.90;;;;;;5043518;28;20173;-80
2023/03/09 11:28:47;;;;;;;2.47;1.90;;;8.60;99.90;;;;;;5039782;28;20662;-80
2023/03/09 11:31:19;;;;;;;1.93;1.73;;;8.50;99.90;;;;;;5037456;28;20221;-78
2023/03/09 11:33:48;;;;;;;2.37;1.70;;;8.50;99.90;;;;;;5038121;28;20183;-80
2023/03/09 11:36:20;;;;;;;3.70;2.00;;;8.60;99.90;;;;;;5030912;28;20647;-79
2023/03/09 11:38:47;;;;;;;1.93;1.60;;;8.60;99.90;;;;;;5031443;28;20653;-79
2023/03/09 11:41:31;;;;;;;2.27;1.97;;;8.80;99.90;;;;;;5032346;28;20233;-83
2023/03/09 11:44:21;;;;;;;1.67;1.40;;;8.90;99.90;;;;;;5033406;28;20251;-82
2023/03/09 11:46:47;;;;;;;2.00;1.47;;;9.00;99.90;;;;;;5030060;28;20274;-82
2023/03/09 11:49:20;;;;;;;1.63;1.53;;;8.90;99.90;;;;;;5027560;28;20190;-82
2023/03/09 11:51:48;;;;;;;1.90;1.50;;;8.90;99.90;;;;;;5031265;28;20194;-81
2023/03/09 11:54:20;;;;;;;2.30;1.87;;;8.90;99.90;;;;;;5033042;28;20554;-81
2023/03/09 11:56:47;;;;;;;1.73;1.60;;;8.90;99.90;;;;;;5031360;28;20273;-82
2023/03/09 11:59:35;;;;;;;3.17;2.23;;;8.80;99.90;;;;;;5031314;28;20210;-82
2023/03/09 12:02:22;;;;;;;2.20;1.70;;;8.90;99.90;;;;;;5031444;28;20199;-81
2023/03/09 12:04:50;;;;;;;4.47;2.27;;;8.90;99.90;;;;;;5031224;28;20190;-81
2023/03/09 12:07:21;;;;;;;4.10;2.07;;;8.80;99.90;;;;;;5032490;28;20209;-82
2023/03/09 12:10:04;;;;;;;2.60;1.93;;;8.90;99.90;;;;;;5032611;28;20175;-81
2023/03/09 12:12:38;;;;;;;5.87;3.47;;;9.00;99.90;;;;;;5028701;28;20313;-83
2023/03/09 12:15:23;;;;;;;2.53;2.10;;;9.00;99.90;;;;;;5029719;28;20187;-82
2023/03/09 12:17:55;;;;;;;3.63;2.23;;;9.10;99.90;;;;;;5030830;28;20183;-83
2023/03/09 12:20:33;;;;;;;4.33;2.10;;;9.10;99.90;;;;;;5030659;28;20209;-83
2023/03/09 12:22:59;;;;;;;4.13;1.70;;;9.20;99.90;;;;;;5031087;28;20258;-82
2023/03/09 12:25:26;;;;;;;3.03;2.10;;;9.20;99.90;;;;;;5030804;28;20270;-81
2023/03/09 12:28:00;;;;;;;2.40;1.80;;;9.30;99.90;;;;;;5032261;28;20276;-83
2023/03/09 12:30:30;;;;;;;3.67;1.70;;;9.30;99.90;;;;;;5030959;28;20636;-82
2023/03/09 12:33:00;;;;;;;3.77;2.00;;;9.30;99.90;;;;;;5032661;28;20223;-82
2023/03/09 12:35:40;;;;;;;3.67;1.70;;;9.30;99.90;;;;;;5031082;28;20206;-83
2023/03/09 12:38:35;;;;;;;2.87;1.60;;;9.30;99.90;;;;;;5030808;28;20228;-83
2023/03/09 12:41:01;;;;;;;6.53;4.00;;;9.20;99.90;;;;;;5026850;28;20229;-84
2023/03/09 12:43:26;;;;;;;4.23;2.60;;;9.20;99.90;;;;;;5032024;28;20184;-82
2023/03/09 12:45:52;;;;;;;4.73;2.40;;;9.10;99.90;;;;;;5032621;28;20231;-82
2023/03/09 12:48:28;;;;;;;3.83;2.00;;;9.20;99.90;;;;;;5032394;28;20186;-82
2023/03/09 12:50:57;;;;;;;4.23;2.17;;;9.20;99.90;;;;;;5036009;28;20197;-82
2023/03/09 12:53:26;;;;;;;4.03;2.30;;;9.30;99.90;;;;;;5034114;28;20220;-82
2023/03/09 12:55:57;;;;;;;4.40;3.30;;;9.30;99.90;;;;;;5034288;28;20218;-82
2023/03/09 12:58:24;;;;;;;5.47;3.10;;;9.30;99.90;;;;;;5035993;28;20178;-82
2023/03/09 13:00:58;;;;;;;5.33;2.90;;;9.30;99.90;;;;;;5035077;28;20223;-82
2023/03/09 13:04:13;;;;;;;5.97;3.30;;;9.30;99.90;;;;;;5034287;28;20184;-82
2023/03/09 13:06:42;;;;;;;8.40;3.37;;;9.30;99.90;;;;;;5033524;28;20203;-82